sensor_id;sensor_type;location;lat;lon;timestamp;pressure;altitude;pressure_sealevel;temperature;humidity
38225;BME280;24025;48.138;11.428;2024-01-25T00:01:22;96510.22;;;7.76;79.54
38225;BME280;24025;48.138;11.428;2024-01-25T00:03:54;96508.19;;;7.82;79.66
38225;BME280;24025;48.138;11.428;2024-01-25T00:06:26;96496.63;;;7.86;80.07
38225;BME280;24025;48.138;11.428;2024-01-25T00:08:59;96508.22;;;7.73;80.22
38225;BME280;24025;48.138;11.428;2024-01-25T00:11:32;96504.34;;;7.71;81.27
38225;BME280;24025;48.138;11.428;2024-01-25T00:14:03;96504.66;;;7.69;81.34
38225;BME280;24025;48.138;11.428;2024-01-25T00:16:35;96507.94;;;7.66;82.14
38225;BME280;24025;48.138;11.428;2024-01-25T00:19:11;96508.25;;;7.64;82.05
38225;BME280;24025;48.138;11.428;2024-01-25T00:21:43;96501.06;;;7.65;82.26
38225;BME280;24025;48.138;11.428;2024-01-25T00:24:17;96500.59;;;7.72;81.59
38225;BME280;24025;48.138;11.428;2024-01-25T00:26:49;96508.72;;;7.66;81.91
38225;BME280;24025;48.138;11.428;2024-01-25T00:29:20;96504.97;;;7.67;81.39
38225;BME280;24025;48.138;11.428;2024-01-25T00:31:52;96500.25;;;7.73;80.82
38225;BME280;24025;48.138;11.428;2024-01-25T00:34:23;96504.63;;;7.78;80.74
38225;BME280;24025;48.138;11.428;2024-01-25T00:36:56;96493.84;;;7.74;81.15
38225;BME280;24025;48.138;11.428;2024-01-25T00:39:27;96500.72;;;7.75;80.39
38225;BME280;24025;48.138;11.428;2024-01-25T00:42:03;96500.09;;;7.78;80.41
38225;BME280;24025;48.138;11.428;2024-01-25T00:44:35;96500.09;;;7.78;80.00
38225;BME280;24025;48.138;11.428;2024-01-25T00:47:07;96498.06;;;7.75;79.45
38225;BME280;24025;48.138;11.428;2024-01-25T00:49:39;96485.56;;;7.76;79.49
38225;BME280;24025;48.138;11.428;2024-01-25T00:52:11;96486.81;;;7.78;79.78
38225;BME280;24025;48.138;11.428;2024-01-25T00:54:43;96482.44;;;7.74;79.58
38225;BME280;24025;48.138;11.428;2024-01-25T00:57:14;96490.25;;;7.79;79.13
38225;BME280;24025;48.138;11.428;2024-01-25T00:59:46;96493.81;;;7.83;79.25
38225;BME280;24025;48.138;11.428;2024-01-25T01:02:18;96493.16;;;7.86;78.95
38225;BME280;24025;48.138;11.428;2024-01-25T01:04:51;96490.38;;;7.82;78.83
38225;BME280;24025;48.138;11.428;2024-01-25T01:07:23;96493.19;;;7.77;79.07
38225;BME280;24025;48.138;11.428;2024-01-25T01:09:55;96494.13;;;7.81;78.82
38225;BME280;24025;48.138;11.428;2024-01-25T01:12:26;96497.25;;;7.83;78.48
38225;BME280;24025;48.138;11.428;2024-01-25T01:14:58;96506.78;;;7.76;78.70
38225;BME280;24025;48.138;11.428;2024-01-25T01:17:29;96520.22;;;7.79;78.79
38225;BME280;24025;48.138;11.428;2024-01-25T01:20:01;96514.91;;;7.79;78.25
38225;BME280;24025;48.138;11.428;2024-01-25T01:22:32;96527.72;;;7.77;78.77
38225;BME280;24025;48.138;11.428;2024-01-25T01:25:04;96526.31;;;7.80;78.82
38225;BME280;24025;48.138;11.428;2024-01-25T01:27:35;96535.84;;;7.81;78.85
38225;BME280;24025;48.138;11.428;2024-01-25T01:30:07;96532.41;;;7.80;78.92
38225;BME280;24025;48.138;11.428;2024-01-25T01:32:39;96531.63;;;7.80;79.18
38225;BME280;24025;48.138;11.428;2024-01-25T01:35:11;96527.09;;;7.80;79.31
38225;BME280;24025;48.138;11.428;2024-01-25T01:37:42;96524.25;;;7.85;79.37
38225;BME280;24025;48.138;11.428;2024-01-25T01:40:14;96518.94;;;7.85;78.97
38225;BME280;24025;48.138;11.428;2024-01-25T01:42:46;96510.72;;;7.78;79.09
38225;BME280;24025;48.138;11.428;2024-01-25T01:45:17;96518.94;;;7.85;79.09
38225;BME280;24025;48.138;11.428;2024-01-25T01:47:48;96522.84;;;7.88;79.10
38225;BME280;24025;48.138;11.428;2024-01-25T01:50:21;96517.22;;;7.89;78.68
38225;BME280;24025;48.138;11.428;2024-01-25T01:52:54;96519.53;;;7.91;78.94
38225;BME280;24025;48.138;11.428;2024-01-25T01:55:26;96519.38;;;7.96;79.10
38225;BME280;24025;48.138;11.428;2024-01-25T01:57:58;96514.84;;;7.97;78.81
38225;BME280;24025;48.138;11.428;2024-01-25T02:00:30;96525.19;;;7.89;78.94
38225;BME280;24025;48.138;11.428;2024-01-25T02:03:02;96511.75;;;7.86;78.88
38225;BME280;24025;48.138;11.428;2024-01-25T02:05:33;96509.81;;;7.95;78.97
38225;BME280;24025;48.138;11.428;2024-01-25T02:08:05;96516.25;;;7.94;79.30
38225;BME280;24025;48.138;11.428;2024-01-25T02:10:37;96508.59;;;7.92;79.20
38225;BME280;24025;48.138;11.428;2024-01-25T02:13:08;96508.00;;;7.87;79.99
38225;BME280;24025;48.138;11.428;2024-01-25T02:15:40;96500.66;;;7.84;80.64
38225;BME280;24025;48.138;11.428;2024-01-25T02:18:11;96506.47;;;7.77;81.18
38225;BME280;24025;48.138;11.428;2024-01-25T02:20:43;96497.06;;;7.88;80.80
38225;BME280;24025;48.138;11.428;2024-01-25T02:23:14;96501.72;;;7.91;80.74
38225;BME280;24025;48.138;11.428;2024-01-25T02:25:46;96505.66;;;7.85;80.73
38225;BME280;24025;48.138;11.428;2024-01-25T02:28:17;96511.16;;;7.80;80.88
38225;BME280;24025;48.138;11.428;2024-01-25T02:30:49;96507.69;;;7.88;80.50
38225;BME280;24025;48.138;11.428;2024-01-25T02:33:21;96500.81;;;7.87;81.05
38225;BME280;24025;48.138;11.428;2024-01-25T02:35:53;96499.72;;;7.88;80.88
38225;BME280;24025;48.138;11.428;2024-01-25T02:38:24;96493.00;;;7.91;80.76
38225;BME280;24025;48.138;11.428;2024-01-25T02:40:56;96493.47;;;7.84;80.68
38225;BME280;24025;48.138;11.428;2024-01-25T02:43:27;96489.59;;;7.82;80.80
38225;BME280;24025;48.138;11.428;2024-01-25T02:45:59;96491.59;;;7.85;80.92
38225;BME280;24025;48.138;11.428;2024-01-25T02:48:31;96478.97;;;7.82;81.65
38225;BME280;24025;48.138;11.428;2024-01-25T02:51:03;96490.81;;;7.84;81.63
38225;BME280;24025;48.138;11.428;2024-01-25T02:53:34;96499.56;;;7.85;81.65
38225;BME280;24025;48.138;11.428;2024-01-25T02:56:06;96482.59;;;7.77;81.99
38225;BME280;24025;48.138;11.428;2024-01-25T02:58:38;96491.16;;;7.83;81.81
38225;BME280;24025;48.138;11.428;2024-01-25T03:01:09;96493.53;;;7.76;82.16
38225;BME280;24025;48.138;11.428;2024-01-25T03:03:41;96483.06;;;7.79;82.44
38225;BME280;24025;48.138;11.428;2024-01-25T03:06:13;96488.03;;;7.81;82.18
38225;BME280;24025;48.138;11.428;2024-01-25T03:08:44;96490.75;;;7.72;82.77
38225;BME280;24025;48.138;11.428;2024-01-25T03:11:15;96499.31;;;7.78;82.69
38225;BME280;24025;48.138;11.428;2024-01-25T03:13:47;96498.16;;;7.87;82.23
38225;BME280;24025;48.138;11.428;2024-01-25T03:16:18;96483.50;;;7.81;82.78
38225;BME280;24025;48.138;11.428;2024-01-25T03:18:50;96479.16;;;7.77;83.19
38225;BME280;24025;48.138;11.428;2024-01-25T03:21:22;96487.28;;;7.80;83.04
38225;BME280;24025;48.138;11.428;2024-01-25T03:23:54;96483.84;;;7.80;82.87
38225;BME280;24025;48.138;11.428;2024-01-25T03:26:28;96488.38;;;7.79;83.46
38225;BME280;24025;48.138;11.428;2024-01-25T03:29:00;96484.78;;;7.75;83.74
38225;BME280;24025;48.138;11.428;2024-01-25T03:31:32;96477.47;;;7.72;84.06
38225;BME280;24025;48.138;11.428;2024-01-25T03:34:03;96477.56;;;7.84;83.56
38225;BME280;24025;48.138;11.428;2024-01-25T03:36:37;96470.88;;;7.78;84.11
38225;BME280;24025;48.138;11.428;2024-01-25T03:39:11;96477.59;;;7.76;83.83
38225;BME280;24025;48.138;11.428;2024-01-25T03:41:42;96455.78;;;7.70;84.78
38225;BME280;24025;48.138;11.428;2024-01-25T03:44:14;96456.56;;;7.71;84.62
38225;BME280;24025;48.138;11.428;2024-01-25T03:46:45;96456.41;;;7.67;84.33
38225;BME280;24025;48.138;11.428;2024-01-25T03:49:17;96467.66;;;7.64;84.07
38225;BME280;24025;48.138;11.428;2024-01-25T03:51:50;96463.75;;;7.70;83.70
38225;BME280;24025;48.138;11.428;2024-01-25T03:54:22;96469.50;;;7.72;83.40
38225;BME280;24025;48.138;11.428;2024-01-25T03:56:53;96480.56;;;7.74;83.43
38225;BME280;24025;48.138;11.428;2024-01-25T03:59:26;96477.16;;;7.74;83.19
38225;BME280;24025;48.138;11.428;2024-01-25T04:01:57;96482.91;;;7.76;83.25
38225;BME280;24025;48.138;11.428;2024-01-25T04:04:29;96487.13;;;7.77;83.02
38225;BME280;24025;48.138;11.428;2024-01-25T04:07:01;96492.59;;;7.80;82.67
38225;BME280;24025;48.138;11.428;2024-01-25T04:09:32;96483.38;;;7.78;82.62
38225;BME280;24025;48.138;11.428;2024-01-25T04:12:04;96486.53;;;7.71;83.22
38225;BME280;24025;48.138;11.428;2024-01-25T04:14:35;96490.63;;;7.69;83.36
38225;BME280;24025;48.138;11.428;2024-01-25T04:17:07;96492.75;;;7.75;83.49
38225;BME280;24025;48.138;11.428;2024-01-25T04:19:38;96499.19;;;7.65;84.14
38225;BME280;24025;48.138;11.428;2024-01-25T04:22:10;96501.06;;;7.65;84.50
38225;BME280;24025;48.138;11.428;2024-01-25T04:24:41;96502.97;;;7.56;84.95
38225;BME280;24025;48.138;11.428;2024-01-25T04:27:15;96515.16;;;7.57;85.04
38225;BME280;24025;48.138;11.428;2024-01-25T04:29:46;96515.34;;;7.52;85.52
38225;BME280;24025;48.138;11.428;2024-01-25T04:32:18;96516.72;;;7.49;85.95
38225;BME280;24025;48.138;11.428;2024-01-25T04:34:49;96523.91;;;7.49;86.24
38225;BME280;24025;48.138;11.428;2024-01-25T04:37:21;96542.34;;;7.45;85.68
38225;BME280;24025;48.138;11.428;2024-01-25T04:39:54;96542.34;;;7.45;85.65
38225;BME280;24025;48.138;11.428;2024-01-25T04:42:25;96546.13;;;7.44;85.77
38225;BME280;24025;48.138;11.428;2024-01-25T04:44:59;96543.75;;;7.51;85.34
38225;BME280;24025;48.138;11.428;2024-01-25T04:47:30;96537.81;;;7.54;85.36
38225;BME280;24025;48.138;11.428;2024-01-25T04:50:02;96552.66;;;7.47;85.93
38225;BME280;24025;48.138;11.428;2024-01-25T04:52:34;96535.81;;;7.43;86.13
38225;BME280;24025;48.138;11.428;2024-01-25T04:55:05;96541.13;;;7.43;86.65
38225;BME280;24025;48.138;11.428;2024-01-25T04:57:37;96535.06;;;7.33;86.92
38225;BME280;24025;48.138;11.428;2024-01-25T05:00:09;96548.16;;;7.38;87.06
38225;BME280;24025;48.138;11.428;2024-01-25T05:02:40;96556.88;;;7.39;86.61
38225;BME280;24025;48.138;11.428;2024-01-25T05:05:12;96551.44;;;7.35;87.22
38225;BME280;24025;48.138;11.428;2024-01-25T05:07:43;96548.78;;;7.35;86.93
38225;BME280;24025;48.138;11.428;2024-01-25T05:10:15;96550.34;;;7.36;86.97
38225;BME280;24025;48.138;11.428;2024-01-25T05:12:46;96558.00;;;7.29;87.57
38225;BME280;24025;48.138;11.428;2024-01-25T05:15:18;96557.53;;;7.27;87.59
38225;BME280;24025;48.138;11.428;2024-01-25T05:17:49;96561.75;;;7.28;87.58
38225;BME280;24025;48.138;11.428;2024-01-25T05:20:21;96569.25;;;7.26;87.68
38225;BME280;24025;48.138;11.428;2024-01-25T05:22:53;96565.19;;;7.29;87.86
38225;BME280;24025;48.138;11.428;2024-01-25T05:25:25;96572.03;;;7.21;88.55
38225;BME280;24025;48.138;11.428;2024-01-25T05:27:57;96571.91;;;7.26;88.49
38225;BME280;24025;48.138;11.428;2024-01-25T05:30:29;96580.63;;;7.27;88.63
38225;BME280;24025;48.138;11.428;2024-01-25T05:33:01;96574.38;;;7.23;89.07
38225;BME280;24025;48.138;11.428;2024-01-25T05:35:33;96574.38;;;7.23;89.15
38225;BME280;24025;48.138;11.428;2024-01-25T05:38:06;96575.03;;;7.20;89.15
38225;BME280;24025;48.138;11.428;2024-01-25T05:40:40;96576.44;;;7.26;89.10
38225;BME280;24025;48.138;11.428;2024-01-25T05:43:12;96576.56;;;7.21;89.01
38225;BME280;24025;48.138;11.428;2024-01-25T05:45:43;96587.81;;;7.18;89.41
38225;BME280;24025;48.138;11.428;2024-01-25T05:48:15;96590.31;;;7.14;89.47
38225;BME280;24025;48.138;11.428;2024-01-25T05:50:47;96587.50;;;7.10;89.50
38225;BME280;24025;48.138;11.428;2024-01-25T05:53:18;96595.31;;;7.07;89.75
38225;BME280;24025;48.138;11.428;2024-01-25T05:55:51;96602.00;;;7.13;89.37
38225;BME280;24025;48.138;11.428;2024-01-25T05:58:22;96604.06;;;7.07;89.68
38225;BME280;24025;48.138;11.428;2024-01-25T06:00:54;96608.88;;;7.14;89.45
38225;BME280;24025;48.138;11.428;2024-01-25T06:03:26;96616.81;;;7.14;89.43
38225;BME280;24025;48.138;11.428;2024-01-25T06:05:57;96615.72;;;7.15;89.21
38225;BME280;24025;48.138;11.428;2024-01-25T06:08:29;96617.78;;;7.18;88.76
38225;BME280;24025;48.138;11.428;2024-01-25T06:11:00;96607.00;;;7.15;88.67
38225;BME280;24025;48.138;11.428;2024-01-25T06:13:32;96611.22;;;7.16;88.33
38225;BME280;24025;48.138;11.428;2024-01-25T06:16:04;96622.63;;;7.16;87.87
38225;BME280;24025;48.138;11.428;2024-01-25T06:18:35;96626.50;;;7.01;88.32
38225;BME280;24025;48.138;11.428;2024-01-25T06:21:07;96629.00;;;7.06;87.97
38225;BME280;24025;48.138;11.428;2024-01-25T06:23:38;96635.88;;;6.99;87.56
38225;BME280;24025;48.138;11.428;2024-01-25T06:26:10;96641.19;;;7.07;86.87
38225;BME280;24025;48.138;11.428;2024-01-25T06:28:41;96643.84;;;7.07;86.89
38225;BME280;24025;48.138;11.428;2024-01-25T06:31:13;96641.97;;;7.08;86.54
38225;BME280;24025;48.138;11.428;2024-01-25T06:33:45;96644.13;;;7.06;86.99
38225;BME280;24025;48.138;11.428;2024-01-25T06:36:22;96655.22;;;6.99;87.41
38225;BME280;24025;48.138;11.428;2024-01-25T06:38:53;96663.31;;;6.94;87.73
38225;BME280;24025;48.138;11.428;2024-01-25T06:41:25;96673.59;;;6.96;87.59
38225;BME280;24025;48.138;11.428;2024-01-25T06:43:56;96674.56;;;7.00;87.11
38225;BME280;24025;48.138;11.428;2024-01-25T06:46:28;96683.13;;;6.97;87.40
38225;BME280;24025;48.138;11.428;2024-01-25T06:48:59;96678.09;;;6.87;87.41
38225;BME280;24025;48.138;11.428;2024-01-25T06:51:31;96674.69;;;6.86;87.40
38225;BME280;24025;48.138;11.428;2024-01-25T06:54:04;96678.72;;;6.84;87.38
38225;BME280;24025;48.138;11.428;2024-01-25T06:56:44;96674.31;;;6.70;88.34
38225;BME280;24025;48.138;11.428;2024-01-25T06:59:15;96678.69;;;6.66;89.15
38225;BME280;24025;48.138;11.428;2024-01-25T07:01:47;96692.56;;;6.63;90.10
38225;BME280;24025;48.138;11.428;2024-01-25T07:04:19;96691.13;;;6.57;90.79
38225;BME280;24025;48.138;11.428;2024-01-25T07:06:51;96695.81;;;6.60;91.01
38225;BME280;24025;48.138;11.428;2024-01-25T07:09:23;96698.91;;;6.53;91.01
38225;BME280;24025;48.138;11.428;2024-01-25T07:11:55;96696.25;;;6.53;90.65
38225;BME280;24025;48.138;11.428;2024-01-25T07:14:26;96698.75;;;6.50;90.88
38225;BME280;24025;48.138;11.428;2024-01-25T07:16:58;96712.47;;;6.52;90.79
38225;BME280;24025;48.138;11.428;2024-01-25T07:19:29;96716.66;;;6.53;90.52
38225;BME280;24025;48.138;11.428;2024-01-25T07:22:01;96721.69;;;6.55;90.56
38225;BME280;24025;48.138;11.428;2024-01-25T07:24:32;96716.84;;;6.57;90.42
38225;BME280;24025;48.138;11.428;2024-01-25T07:27:04;96725.69;;;6.43;91.68
38225;BME280;24025;48.138;11.428;2024-01-25T07:29:36;96730.69;;;6.45;91.65
38225;BME280;24025;48.138;11.428;2024-01-25T07:32:07;96724.19;;;6.60;90.97
38225;BME280;24025;48.138;11.428;2024-01-25T07:34:39;96725.59;;;6.57;90.78
38225;BME280;24025;48.138;11.428;2024-01-25T07:37:11;96725.13;;;6.55;90.48
38225;BME280;24025;48.138;11.428;2024-01-25T07:39:42;96726.50;;;6.52;91.00
38225;BME280;24025;48.138;11.428;2024-01-25T07:42:14;96727.81;;;6.64;90.65
38225;BME280;24025;48.138;11.428;2024-01-25T07:44:46;96744.56;;;6.50;91.12
38225;BME280;24025;48.138;11.428;2024-01-25T07:47:17;96746.47;;;6.59;90.95
38225;BME280;24025;48.138;11.428;2024-01-25T07:49:49;96739.34;;;6.68;90.05
38225;BME280;24025;48.138;11.428;2024-01-25T07:52:21;96741.50;;;6.57;89.80
38225;BME280;24025;48.138;11.428;2024-01-25T07:54:56;96750.53;;;6.56;88.89
38225;BME280;24025;48.138;11.428;2024-01-25T07:57:28;96755.41;;;6.63;87.37
38225;BME280;24025;48.138;11.428;2024-01-25T07:59:59;96775.19;;;6.65;85.95
38225;BME280;24025;48.138;11.428;2024-01-25T08:02:31;96770.25;;;6.72;85.53
38225;BME280;24025;48.138;11.428;2024-01-25T08:05:02;96773.81;;;6.76;84.97
38225;BME280;24025;48.138;11.428;2024-01-25T08:07:35;96775.41;;;6.86;84.78
38225;BME280;24025;48.138;11.428;2024-01-25T08:10:08;96760.50;;;6.99;83.83
38225;BME280;24025;48.138;11.428;2024-01-25T08:12:39;96763.78;;;7.04;83.04
38225;BME280;24025;48.138;11.428;2024-01-25T08:15:25;96774.38;;;7.04;82.53
38225;BME280;24025;48.138;11.428;2024-01-25T08:17:57;96770.78;;;7.00;82.46
38225;BME280;24025;48.138;11.428;2024-01-25T08:20:28;96763.00;;;7.13;82.64
38225;BME280;24025;48.138;11.428;2024-01-25T08:23:00;96765.56;;;7.26;82.58
38225;BME280;24025;48.138;11.428;2024-01-25T08:25:32;96761.03;;;7.35;81.84
38225;BME280;24025;48.138;11.428;2024-01-25T08:28:04;96765.25;;;7.36;81.85
38225;BME280;24025;48.138;11.428;2024-01-25T08:30:35;96767.91;;;7.36;82.06
38225;BME280;24025;48.138;11.428;2024-01-25T08:33:09;96760.72;;;7.28;81.59
38225;BME280;24025;48.138;11.428;2024-01-25T08:35:41;96753.41;;;7.43;81.04
38225;BME280;24025;48.138;11.428;2024-01-25T08:38:13;96752.00;;;7.45;80.92
38225;BME280;24025;48.138;11.428;2024-01-25T08:40:44;96751.53;;;7.43;80.86
38225;BME280;24025;48.138;11.428;2024-01-25T08:43:17;96752.63;;;7.42;80.22
38225;BME280;24025;48.138;11.428;2024-01-25T08:45:49;96753.41;;;7.34;78.41
38225;BME280;24025;48.138;11.428;2024-01-25T08:48:20;96756.06;;;7.34;78.52
38225;BME280;24025;48.138;11.428;2024-01-25T08:50:52;96746.38;;;7.38;78.15
38225;BME280;24025;48.138;11.428;2024-01-25T08:53:26;96749.78;;;7.30;76.89
38225;BME280;24025;48.138;11.428;2024-01-25T08:56:00;96752.91;;;7.32;76.57
38225;BME280;24025;48.138;11.428;2024-01-25T08:58:36;96752.75;;;7.28;74.60
38225;BME280;24025;48.138;11.428;2024-01-25T09:01:07;96763.84;;;7.30;74.84
38225;BME280;24025;48.138;11.428;2024-01-25T09:03:39;96773.53;;;7.35;73.51
38225;BME280;24025;48.138;11.428;2024-01-25T09:06:11;96788.16;;;7.32;73.07
38225;BME280;24025;48.138;11.428;2024-01-25T09:08:42;96790.38;;;7.39;72.79
38225;BME280;24025;48.138;11.428;2024-01-25T09:11:14;96791.16;;;7.48;72.53
38225;BME280;24025;48.138;11.428;2024-01-25T09:13:45;96805.41;;;7.61;72.12
38225;BME280;24025;48.138;11.428;2024-01-25T09:16:21;96806.50;;;7.77;72.21
38225;BME280;24025;48.138;11.428;2024-01-25T09:18:53;96807.13;;;7.74;70.27
38225;BME280;24025;48.138;11.428;2024-01-25T09:21:25;96813.22;;;7.75;69.24
38225;BME280;24025;48.138;11.428;2024-01-25T09:23:56;96809.00;;;7.82;69.91
38225;BME280;24025;48.138;11.428;2024-01-25T09:26:28;96808.34;;;7.68;69.54
38225;BME280;24025;48.138;11.428;2024-01-25T09:28:59;96808.84;;;7.61;69.18
38225;BME280;24025;48.138;11.428;2024-01-25T09:31:31;96815.53;;;7.59;69.15
38225;BME280;24025;48.138;11.428;2024-01-25T09:34:03;96820.84;;;7.67;69.48
38225;BME280;24025;48.138;11.428;2024-01-25T09:36:35;96815.84;;;7.66;70.54
38225;BME280;24025;48.138;11.428;2024-01-25T09:39:06;96817.13;;;7.60;71.06
38225;BME280;24025;48.138;11.428;2024-01-25T09:41:39;96816.81;;;7.61;72.36
38225;BME280;24025;48.138;11.428;2024-01-25T09:44:13;96815.53;;;7.67;72.24
38225;BME280;24025;48.138;11.428;2024-01-25T09:46:45;96824.78;;;7.79;72.15
38225;BME280;24025;48.138;11.428;2024-01-25T09:49:17;96818.22;;;7.85;71.98
38225;BME280;24025;48.138;11.428;2024-01-25T09:51:50;96823.84;;;8.01;71.78
38225;BME280;24025;48.138;11.428;2024-01-25T09:54:22;96819.16;;;8.06;71.61
38225;BME280;24025;48.138;11.428;2024-01-25T09:56:54;96811.34;;;8.10;69.01
38225;BME280;24025;48.138;11.428;2024-01-25T09:59:26;96814.63;;;8.15;68.06
38225;BME280;24025;48.138;11.428;2024-01-25T10:01:58;96825.72;;;8.17;67.49
38225;BME280;24025;48.138;11.428;2024-01-25T10:04:32;96818.22;;;8.02;68.09
38225;BME280;24025;48.138;11.428;2024-01-25T10:07:04;96825.06;;;8.20;67.94
38225;BME280;24025;48.138;11.428;2024-01-25T10:09:39;96823.69;;;8.06;67.14
38225;BME280;24025;48.138;11.428;2024-01-25T10:12:11;96827.72;;;8.12;67.42
38225;BME280;24025;48.138;11.428;2024-01-25T10:14:49;96824.94;;;8.08;66.72
38225;BME280;24025;48.138;11.428;2024-01-25T10:17:23;96830.38;;;8.12;67.25
38225;BME280;24025;48.138;11.428;2024-01-25T10:19:54;96835.09;;;8.23;67.49
38225;BME280;24025;48.138;11.428;2024-01-25T10:22:27;96844.44;;;8.30;67.74
38225;BME280;24025;48.138;11.428;2024-01-25T10:24:58;96835.25;;;8.36;66.39
38225;BME280;24025;48.138;11.428;2024-01-25T10:27:30;96833.53;;;8.40;66.47
38225;BME280;24025;48.138;11.428;2024-01-25T10:30:02;96822.91;;;8.40;66.47
38225;BME280;24025;48.138;11.428;2024-01-25T10:32:35;96816.31;;;8.37;66.57
38225;BME280;24025;48.138;11.428;2024-01-25T10:35:07;96815.69;;;8.32;67.37
38225;BME280;24025;48.138;11.428;2024-01-25T10:37:40;96813.50;;;8.25;67.81
38225;BME280;24025;48.138;11.428;2024-01-25T10:40:12;96811.19;;;8.23;68.62
38225;BME280;24025;48.138;11.428;2024-01-25T10:42:45;96805.84;;;8.32;68.91
38225;BME280;24025;48.138;11.428;2024-01-25T10:45:17;96806.00;;;8.27;68.90
38225;BME280;24025;48.138;11.428;2024-01-25T10:47:49;96815.09;;;8.35;68.28
38225;BME280;24025;48.138;11.428;2024-01-25T10:50:20;96799.88;;;8.52;67.14
38225;BME280;24025;48.138;11.428;2024-01-25T10:52:52;96787.03;;;8.63;65.69
38225;BME280;24025;48.138;11.428;2024-01-25T10:55:24;96788.91;;;8.63;66.33
38225;BME280;24025;48.138;11.428;2024-01-25T10:57:57;96790.94;;;8.66;66.01
38225;BME280;24025;48.138;11.428;2024-01-25T11:00:28;96784.59;;;8.88;65.29
38225;BME280;24025;48.138;11.428;2024-01-25T11:03:08;96780.34;;;8.95;65.53
38225;BME280;24025;48.138;11.428;2024-01-25T11:05:42;96775.38;;;8.85;65.86
38225;BME280;24025;48.138;11.428;2024-01-25T11:08:20;96773.91;;;8.96;65.10
38225;BME280;24025;48.138;11.428;2024-01-25T11:10:51;96773.81;;;8.84;63.27
38225;BME280;24025;48.138;11.428;2024-01-25T11:13:24;96770.59;;;8.99;63.87
38225;BME280;24025;48.138;11.428;2024-01-25T11:15:57;96764.69;;;8.94;63.31
38225;BME280;24025;48.138;11.428;2024-01-25T11:18:28;96761.09;;;8.60;64.35
38225;BME280;24025;48.138;11.428;2024-01-25T11:21:02;96761.38;;;8.67;64.41
38225;BME280;24025;48.138;11.428;2024-01-25T11:23:35;96751.94;;;8.78;64.60
38225;BME280;24025;48.138;11.428;2024-01-25T11:26:07;96750.28;;;9.24;62.93
38225;BME280;24025;48.138;11.428;2024-01-25T11:28:39;96739.59;;;9.75;61.55
38225;BME280;24025;48.138;11.428;2024-01-25T11:31:11;96746.50;;;10.09;60.92
38225;BME280;24025;48.138;11.428;2024-01-25T11:33:43;96736.56;;;10.30;60.25
38225;BME280;24025;48.138;11.428;2024-01-25T11:36:14;96736.03;;;10.37;59.45
38225;BME280;24025;48.138;11.428;2024-01-25T11:38:46;96728.38;;;10.60;59.71
38225;BME280;24025;48.138;11.428;2024-01-25T11:41:18;96727.63;;;10.84;59.17
38225;BME280;24025;48.138;11.428;2024-01-25T11:43:50;96716.84;;;11.04;57.29
38225;BME280;24025;48.138;11.428;2024-01-25T11:46:22;96721.53;;;10.83;56.60
38225;BME280;24025;48.138;11.428;2024-01-25T11:48:54;96718.06;;;10.95;56.36
38225;BME280;24025;48.138;11.428;2024-01-25T11:51:26;96709.97;;;10.79;56.87
38225;BME280;24025;48.138;11.428;2024-01-25T11:53:58;96696.94;;;10.90;56.51
38225;BME280;24025;48.138;11.428;2024-01-25T11:56:31;96694.94;;;10.50;56.73
38225;BME280;24025;48.138;11.428;2024-01-25T11:59:03;96695.63;;;10.71;56.30
38225;BME280;24025;48.138;11.428;2024-01-25T12:01:35;96687.41;;;10.89;55.84
38225;BME280;24025;48.138;11.428;2024-01-25T12:04:07;96683.97;;;11.28;55.18
38225;BME280;24025;48.138;11.428;2024-01-25T12:06:39;96683.88;;;11.13;55.48
38225;BME280;24025;48.138;11.428;2024-01-25T12:09:11;96681.34;;;11.16;53.65
38225;BME280;24025;48.138;11.428;2024-01-25T12:11:44;96684.97;;;11.36;53.47
38225;BME280;24025;48.138;11.428;2024-01-25T12:14:16;96681.72;;;10.90;54.52
38225;BME280;24025;48.138;11.428;2024-01-25T12:16:47;96676.38;;;11.43;53.69
38225;BME280;24025;48.138;11.428;2024-01-25T12:19:20;96675.34;;;11.47;53.51
38225;BME280;24025;48.138;11.428;2024-01-25T12:21:52;96677.91;;;11.16;54.15
38225;BME280;24025;48.138;11.428;2024-01-25T12:24:23;96665.50;;;11.63;53.07
38225;BME280;24025;48.138;11.428;2024-01-25T12:26:55;96661.06;;;11.55;53.18
38225;BME280;24025;48.138;11.428;2024-01-25T12:29:27;96668.56;;;12.06;52.35
38225;BME280;24025;48.138;11.428;2024-01-25T12:31:58;96671.38;;;11.97;52.13
38225;BME280;24025;48.138;11.428;2024-01-25T12:34:30;96667.88;;;12.25;51.36
38225;BME280;24025;48.138;11.428;2024-01-25T12:37:03;96671.25;;;13.20;48.99
38225;BME280;24025;48.138;11.428;2024-01-25T12:39:36;96670.81;;;13.95;46.57
38225;BME280;24025;48.138;11.428;2024-01-25T12:42:08;96659.50;;;14.74;44.57
38225;BME280;24025;48.138;11.428;2024-01-25T12:44:40;96665.47;;;15.13;43.00
38225;BME280;24025;48.138;11.428;2024-01-25T12:47:12;96657.13;;;15.85;41.41
38225;BME280;24025;48.138;11.428;2024-01-25T12:49:44;96656.25;;;16.56;40.35
38225;BME280;24025;48.138;11.428;2024-01-25T12:52:16;96646.84;;;16.83;39.62
38225;BME280;24025;48.138;11.428;2024-01-25T12:54:48;96650.22;;;16.25;40.77
38225;BME280;24025;48.138;11.428;2024-01-25T12:57:20;96646.75;;;14.22;44.40
38225;BME280;24025;48.138;11.428;2024-01-25T12:59:51;96641.31;;;13.95;45.45
38225;BME280;24025;48.138;11.428;2024-01-25T13:02:23;96652.78;;;13.73;45.82
38225;BME280;24025;48.138;11.428;2024-01-25T13:04:55;96635.63;;;13.35;47.46
38225;BME280;24025;48.138;11.428;2024-01-25T13:07:26;96645.63;;;13.03;47.91
38225;BME280;24025;48.138;11.428;2024-01-25T13:09:58;96647.09;;;12.50;48.64
38225;BME280;24025;48.138;11.428;2024-01-25T13:12:30;96645.19;;;12.18;49.89
38225;BME280;24025;48.138;11.428;2024-01-25T13:15:01;96646.56;;;11.69;51.49
38225;BME280;24025;48.138;11.428;2024-01-25T13:17:36;96646.22;;;11.42;51.70
38225;BME280;24025;48.138;11.428;2024-01-25T13:20:08;96636.13;;;11.35;52.39
38225;BME280;24025;48.138;11.428;2024-01-25T13:22:39;96634.34;;;12.11;50.46